createdAt,value
2024-01-05T00:02:01.456Z,7.90
2024-01-05T00:04:28.695Z,6.10
2024-01-05T00:06:55.971Z,8.77
2024-01-05T00:09:23.336Z,9.33
2024-01-05T00:11:50.691Z,6.67
2024-01-05T00:14:18.047Z,6.77
2024-01-05T00:16:45.523Z,5.77
2024-01-05T00:19:12.849Z,9.43
2024-01-05T00:21:40.392Z,8.33
2024-01-05T00:24:09.672Z,6.53
2024-01-05T00:26:41.915Z,6.97
2024-01-05T00:29:09.750Z,5.77
2024-01-05T00:31:37.225Z,10.23
2024-01-05T00:34:04.679Z,20.63
2024-01-05T00:36:32.208Z,23.23
2024-01-05T00:38:59.474Z,9.97
2024-01-05T00:41:26.977Z,7.37
2024-01-05T00:43:54.174Z,8.07
2024-01-05T00:46:21.354Z,7.30
2024-01-05T00:48:48.909Z,6.10
2024-01-05T00:51:16.239Z,5.90
2024-01-05T00:53:43.960Z,3.67
2024-01-05T00:56:11.188Z,5.23
2024-01-05T00:58:38.385Z,10.73
2024-01-05T01:01:08.344Z,6.90
2024-01-05T01:03:36.159Z,4.63
2024-01-05T01:06:03.510Z,5.63
2024-01-05T01:08:31.248Z,7.10
2024-01-05T01:10:58.548Z,4.93
2024-01-05T01:13:25.912Z,5.63
2024-01-05T01:15:53.215Z,3.50
2024-01-05T01:18:20.676Z,8.23
2024-01-05T01:20:48.285Z,4.47
2024-01-05T01:23:16.024Z,5.97
2024-01-05T01:25:43.249Z,10.53
2024-01-05T01:28:10.492Z,7.87
2024-01-05T01:30:37.837Z,8.00
2024-01-05T01:33:05.782Z,10.70
2024-01-05T01:35:34.121Z,9.17
2024-01-05T01:38:01.807Z,3.10
2024-01-05T01:40:29.055Z,5.23
2024-01-05T01:42:56.494Z,5.70
2024-01-05T01:45:23.880Z,7.20
2024-01-05T01:47:52.187Z,7.60
2024-01-05T01:50:19.681Z,7.53
2024-01-05T01:52:51.080Z,7.77
2024-01-05T01:55:18.659Z,8.70
2024-01-05T01:57:46.248Z,4.73
2024-01-05T02:00:15.011Z,5.00
2024-01-05T02:02:43.136Z,8.27
2024-01-05T02:05:10.595Z,4.90
2024-01-05T02:07:38.202Z,4.10
2024-01-05T02:10:05.526Z,6.03
2024-01-05T02:12:33.040Z,8.73
2024-01-05T02:15:00.632Z,9.70
2024-01-05T02:17:36.879Z,5.47
2024-01-05T02:20:04.565Z,3.70
2024-01-05T02:22:34.356Z,7.07
2024-01-05T02:25:01.885Z,3.17
2024-01-05T02:27:29.632Z,3.67
2024-01-05T02:29:57.017Z,7.63
2024-01-05T02:32:25.410Z,5.20
2024-01-05T02:34:53.421Z,4.53
2024-01-05T02:37:20.892Z,5.53
2024-01-05T02:39:48.213Z,9.37
2024-01-05T02:42:15.708Z,7.40
2024-01-05T02:44:43.074Z,7.77
2024-01-05T02:47:10.654Z,3.10
2024-01-05T02:49:38.151Z,4.33
2024-01-05T02:52:05.546Z,3.90
2024-01-05T02:54:33.011Z,6.93
2024-01-05T02:57:00.466Z,6.63
2024-01-05T02:59:27.846Z,6.93
2024-01-05T03:01:55.069Z,5.37
2024-01-05T03:04:22.537Z,3.70
2024-01-05T03:06:49.973Z,2.67
2024-01-05T03:09:17.240Z,4.03
2024-01-05T03:11:44.487Z,7.00
2024-01-05T03:14:11.738Z,6.17
2024-01-05T03:16:38.916Z,3.77
2024-01-05T03:19:06.400Z,3.97
2024-01-05T03:21:34.023Z,7.07
2024-01-05T03:24:01.453Z,6.67
2024-01-05T03:26:28.854Z,4.73
2024-01-05T03:28:56.111Z,5.50
2024-01-05T03:31:26.163Z,5.00
2024-01-05T03:33:53.628Z,6.63
2024-01-05T03:36:21.344Z,3.17
2024-01-05T03:38:48.649Z,3.20
2024-01-05T03:41:16.135Z,4.40
2024-01-05T03:43:43.728Z,3.50
2024-01-05T03:46:12.205Z,5.67
2024-01-05T03:48:40.113Z,5.20
2024-01-05T03:51:07.655Z,2.30
2024-01-05T03:53:35.087Z,2.07
2024-01-05T03:56:02.752Z,1.87
2024-01-05T03:58:30.051Z,4.47
2024-01-05T04:00:57.592Z,1.63
2024-01-05T04:03:25.317Z,3.57
2024-01-05T04:05:52.822Z,3.17
2024-01-05T04:08:20.163Z,3.10
2024-01-05T04:10:47.583Z,3.37
2024-01-05T04:13:15.214Z,1.47
2024-01-05T04:15:42.678Z,2.67
2024-01-05T04:18:10.153Z,2.30
2024-01-05T04:20:37.665Z,4.67
2024-01-05T04:23:04.954Z,3.70
2024-01-05T04:25:32.392Z,1.60
2024-01-05T04:28:00.053Z,5.90
2024-01-05T04:30:27.730Z,2.63
2024-01-05T04:32:55.351Z,4.10
2024-01-05T04:35:22.896Z,2.10
2024-01-05T04:37:50.246Z,3.27
2024-01-05T04:40:18.972Z,2.40
2024-01-05T04:42:46.328Z,2.40
2024-01-05T04:45:14.948Z,1.43
2024-01-05T04:47:42.228Z,2.77
2024-01-05T04:50:11.291Z,1.77
2024-01-05T04:52:38.575Z,4.73
2024-01-05T04:55:06.248Z,2.67
2024-01-05T04:57:33.693Z,3.43
2024-01-05T05:00:01.202Z,2.37
2024-01-05T05:02:28.744Z,2.70
2024-01-05T05:04:56.159Z,2.63
2024-01-05T05:07:23.464Z,3.23
2024-01-05T05:09:50.674Z,4.43
2024-01-05T05:12:17.964Z,5.30
2024-01-05T05:14:45.329Z,4.60
2024-01-05T05:17:12.908Z,6.23
2024-01-05T05:19:40.191Z,2.33
2024-01-05T05:22:07.547Z,5.03
2024-01-05T05:24:34.952Z,3.33
2024-01-05T05:27:02.409Z,3.23
2024-01-05T05:29:29.762Z,3.53
2024-01-05T05:31:57.288Z,3.30
2024-01-05T05:34:25.197Z,3.40
2024-01-05T05:36:52.532Z,3.13
2024-01-05T05:39:20.266Z,2.03
2024-01-05T05:41:47.633Z,3.50
2024-01-05T05:44:14.843Z,4.57
2024-01-05T05:46:42.128Z,3.83
2024-01-05T05:49:11.335Z,4.30
2024-01-05T05:51:38.762Z,2.90
2024-01-05T05:54:06.045Z,2.20
2024-01-05T05:56:33.499Z,2.23
2024-01-05T05:59:00.841Z,2.03
2024-01-05T06:01:28.574Z,3.07
2024-01-05T06:03:56.105Z,7.40
2024-01-05T06:06:24.864Z,6.83
2024-01-05T06:08:52.898Z,13.63
2024-01-05T06:11:20.817Z,10.20
2024-01-05T06:13:48.897Z,10.03
2024-01-05T06:16:16.193Z,9.47
2024-01-05T06:18:45.090Z,9.03
2024-01-05T06:21:13.076Z,3.23
2024-01-05T06:23:40.414Z,6.17
2024-01-05T06:26:09.219Z,5.93
2024-01-05T06:28:36.515Z,4.10
2024-01-05T06:31:05.331Z,4.03
2024-01-05T06:33:33.275Z,2.40
2024-01-05T06:36:00.687Z,3.53
2024-01-05T06:38:28.381Z,2.30
2024-01-05T06:40:59.707Z,2.83
2024-01-05T06:43:27.247Z,2.07
2024-01-05T06:45:57.977Z,7.87
2024-01-05T06:48:25.508Z,3.17
2024-01-05T06:50:54.017Z,3.30
2024-01-05T06:53:21.436Z,2.47
2024-01-05T06:55:48.925Z,3.43
2024-01-05T06:58:16.258Z,4.13
2024-01-05T07:00:44.022Z,6.93
2024-01-05T07:03:12.295Z,12.37
2024-01-05T07:05:39.805Z,9.70
2024-01-05T07:08:08.988Z,4.87
2024-01-05T07:10:36.374Z,6.20
2024-01-05T07:13:08.116Z,11.13
2024-01-05T07:15:35.613Z,9.97
2024-01-05T07:18:03.031Z,8.33
2024-01-05T07:20:30.467Z,5.80
2024-01-05T07:22:58.485Z,4.70
2024-01-05T07:25:26.162Z,5.97
2024-01-05T07:27:53.509Z,4.47
2024-01-05T07:30:21.054Z,4.57
2024-01-05T07:32:50.659Z,4.30
2024-01-05T07:35:18.195Z,4.60
2024-01-05T07:37:47.315Z,6.70
2024-01-05T07:40:14.881Z,4.73
2024-01-05T07:42:42.157Z,3.17
2024-01-05T07:45:09.828Z,4.93
2024-01-05T07:47:37.245Z,5.43
2024-01-05T07:50:05.374Z,3.80
2024-01-05T07:52:32.728Z,4.70
2024-01-05T07:55:00.034Z,5.17
2024-01-05T07:57:27.380Z,5.53
2024-01-05T07:59:54.775Z,5.27
2024-01-05T08:02:22.259Z,2.97
2024-01-05T08:04:49.929Z,2.37
2024-01-05T08:07:19.097Z,2.50
2024-01-05T08:09:46.608Z,4.10
2024-01-05T08:12:16.419Z,3.90
2024-01-05T08:14:44.994Z,2.67
2024-01-05T08:17:12.239Z,11.63
2024-01-05T08:19:39.735Z,8.70
2024-01-05T08:22:07.044Z,9.90
2024-01-05T08:24:34.559Z,4.60
2024-01-05T08:27:01.990Z,6.07
2024-01-05T08:29:29.401Z,7.07
2024-01-05T08:31:59.652Z,4.83
2024-01-05T08:34:27.502Z,5.80
2024-01-05T08:36:55.048Z,6.53
2024-01-05T08:39:22.704Z,6.60
2024-01-05T08:41:49.955Z,4.87
2024-01-05T08:44:17.308Z,5.10
2024-01-05T08:46:44.828Z,6.73
2024-01-05T08:49:12.222Z,4.33
2024-01-05T08:51:43.666Z,4.40
2024-01-05T08:54:13.401Z,2.57
2024-01-05T08:56:43.394Z,5.40
2024-01-05T08:59:12.735Z,5.33
2024-01-05T09:01:41.867Z,6.73
2024-01-05T09:04:12.442Z,2.63
2024-01-05T09:06:40.444Z,4.60
2024-01-05T09:09:08.531Z,5.30
2024-01-05T09:11:35.876Z,2.57
2024-01-05T09:14:03.355Z,6.40
2024-01-05T09:16:34.380Z,3.90
2024-01-05T09:19:02.791Z,6.87
2024-01-05T09:21:30.251Z,2.20
2024-01-05T09:23:57.539Z,2.47
2024-01-05T09:26:26.383Z,3.77
2024-01-05T09:28:54.835Z,2.63
2024-01-05T09:31:22.835Z,3.23
2024-01-05T09:33:51.197Z,3.57
2024-01-05T09:36:18.987Z,2.87
2024-01-05T09:38:46.308Z,2.60
2024-01-05T09:41:15.120Z,3.53
2024-01-05T09:43:42.897Z,1.67
2024-01-05T09:46:11.248Z,2.33
2024-01-05T09:48:47.481Z,3.03
2024-01-05T09:51:23.252Z,6.43
2024-01-05T09:53:50.587Z,3.33
2024-01-05T09:56:22.402Z,5.20
2024-01-05T09:58:54.116Z,8.17
2024-01-05T10:01:29.608Z,15.37
2024-01-05T10:03:59.654Z,9.30
2024-01-05T10:06:28.112Z,6.17
2024-01-05T10:09:01.632Z,8.43
2024-01-05T10:11:48.598Z,5.57
2024-01-05T10:14:16.781Z,5.30
2024-01-05T10:16:52.197Z,11.77
2024-01-05T10:19:21.282Z,16.17
2024-01-05T10:21:49.683Z,11.33
2024-01-05T10:24:19.566Z,23.03
2024-01-05T10:26:48.369Z,16.90
2024-01-05T10:29:16.717Z,14.63
2024-01-05T10:31:44.048Z,9.07
2024-01-05T10:34:11.944Z,5.47
2024-01-05T10:36:40.694Z,5.37
2024-01-05T10:39:10.610Z,8.93
2024-01-05T10:41:39.079Z,8.57
2024-01-05T10:44:06.633Z,10.10
2024-01-05T10:46:34.178Z,6.30
2024-01-05T10:49:04.766Z,7.23
2024-01-05T10:51:35.780Z,9.90
2024-01-05T10:54:04.060Z,8.97
2024-01-05T10:56:32.985Z,7.97
2024-01-05T10:59:00.304Z,4.17
2024-01-05T11:01:32.608Z,6.63
2024-01-05T11:04:02.108Z,2.87
2024-01-05T11:06:30.768Z,6.60
2024-01-05T11:08:58.273Z,2.70
2024-01-05T11:11:36.677Z,4.03
2024-01-05T11:14:22.964Z,4.60
2024-01-05T11:17:02.849Z,3.37
2024-01-05T11:19:30.061Z,5.70
2024-01-05T11:21:59.255Z,4.90
2024-01-05T11:24:26.706Z,4.03
2024-01-05T11:26:58.209Z,2.50
2024-01-05T11:29:44.418Z,2.60
2024-01-05T11:32:11.673Z,4.40
2024-01-05T11:34:39.328Z,5.97
2024-01-05T11:37:07.834Z,4.03
2024-01-05T11:39:54.570Z,4.97
2024-01-05T11:42:32.798Z,3.67
2024-01-05T11:45:01.086Z,3.73
2024-01-05T11:47:47.678Z,5.00
2024-01-05T11:50:27.672Z,24.57
2024-01-05T11:53:10.836Z,4.47
2024-01-05T11:55:41.529Z,5.67
2024-01-05T11:58:09.695Z,3.00
2024-01-05T12:00:37.583Z,4.60
2024-01-05T12:03:06.581Z,4.53
2024-01-05T12:05:34.498Z,2.90
2024-01-05T12:08:02.086Z,4.27
2024-01-05T12:10:30.139Z,4.13
2024-01-05T12:12:58.087Z,4.60
2024-01-05T12:15:26.729Z,6.03
2024-01-05T12:18:16.991Z,5.90
2024-01-05T12:20:55.729Z,4.10
2024-01-05T12:23:23.431Z,5.77
2024-01-05T12:26:12.083Z,6.80
2024-01-05T12:28:40.458Z,6.07
2024-01-05T12:31:12.022Z,7.23
2024-01-05T12:33:41.113Z,5.67
2024-01-05T12:36:11.371Z,6.43
2024-01-05T12:38:39.705Z,9.03
2024-01-05T12:41:10.337Z,15.57
2024-01-05T12:43:38.172Z,21.93
2024-01-05T12:46:06.316Z,12.83
2024-01-05T12:48:35.227Z,13.13
2024-01-05T12:51:06.740Z,11.97
2024-01-05T12:53:35.316Z,8.93
2024-01-05T12:56:12.845Z,4.13
2024-01-05T12:58:40.983Z,5.30
2024-01-05T13:01:20.208Z,3.77
2024-01-05T13:03:56.908Z,3.27
2024-01-05T13:06:25.460Z,3.67
2024-01-05T13:08:53.211Z,5.23
2024-01-05T13:11:21.934Z,7.67
2024-01-05T13:13:53.546Z,7.63
2024-01-05T13:16:21.863Z,5.20
2024-01-05T13:18:50.119Z,6.07
2024-01-05T13:21:17.679Z,4.83
2024-01-05T13:23:45.745Z,7.13
2024-01-05T13:26:13.366Z,4.50
2024-01-05T13:28:41.877Z,5.17
2024-01-05T13:31:10.404Z,4.50
2024-01-05T13:33:38.223Z,8.97
2024-01-05T13:36:09.658Z,5.43
2024-01-05T13:38:38.419Z,20.97
2024-01-05T13:41:05.937Z,18.27
2024-01-05T13:43:33.692Z,13.57
2024-01-05T13:46:01.133Z,5.63
2024-01-05T13:48:28.554Z,7.67
2024-01-05T13:50:55.985Z,6.13
2024-01-05T13:53:23.612Z,6.53
2024-01-05T13:55:50.903Z,6.07
2024-01-05T13:58:19.190Z,6.57
2024-01-05T14:00:49.317Z,9.43
2024-01-05T14:03:18.648Z,7.43
2024-01-05T14:05:46.151Z,6.87
2024-01-05T14:08:14.217Z,5.23
2024-01-05T14:10:41.944Z,5.77
2024-01-05T14:13:09.665Z,6.07
2024-01-05T14:15:37.403Z,4.57
2024-01-05T14:18:07.500Z,6.37
2024-01-05T14:20:35.326Z,6.53
2024-01-05T14:23:03.956Z,12.07
2024-01-05T14:25:34.996Z,10.33
2024-01-05T14:28:02.459Z,7.27
2024-01-05T14:30:30.055Z,6.73
2024-01-05T14:32:57.562Z,8.03
2024-01-05T14:35:24.976Z,10.83
2024-01-05T14:37:52.263Z,14.17
2024-01-05T14:40:20.085Z,9.75
2024-01-05T14:42:47.301Z,8.90
2024-01-05T14:45:14.665Z,9.40
2024-01-05T14:47:42.997Z,11.33
2024-01-05T14:50:12.368Z,7.30
2024-01-05T14:52:39.567Z,6.27
2024-01-05T14:55:07.205Z,5.43
2024-01-05T14:57:34.659Z,11.63
2024-01-05T15:00:02.080Z,9.13
2024-01-05T15:02:29.461Z,6.70
2024-01-05T15:04:56.813Z,8.73
2024-01-05T15:07:24.151Z,6.40
2024-01-05T15:09:51.659Z,5.03
2024-01-05T15:12:19.506Z,7.33
2024-01-05T15:14:47.119Z,5.83
2024-01-05T15:17:14.328Z,5.83
2024-01-05T15:19:42.504Z,4.40
2024-01-05T15:22:09.896Z,8.97
2024-01-05T15:24:41.427Z,7.83
2024-01-05T15:27:08.761Z,5.33
2024-01-05T15:29:40.240Z,6.23
2024-01-05T15:32:07.857Z,7.53
2024-01-05T15:34:35.857Z,9.10
2024-01-05T15:37:03.183Z,7.23
2024-01-05T15:39:31.003Z,4.50
2024-01-05T15:41:58.247Z,5.33
2024-01-05T15:44:25.423Z,8.37
2024-01-05T15:46:52.645Z,6.70
2024-01-05T15:49:20.077Z,7.57
2024-01-05T15:51:49.840Z,7.23
2024-01-05T15:54:17.350Z,5.97
2024-01-05T15:56:44.979Z,5.83
2024-01-05T15:59:13.433Z,6.80
2024-01-05T16:01:41.693Z,5.57
2024-01-05T16:04:09.981Z,6.60
2024-01-05T16:06:37.359Z,6.93
2024-01-05T16:09:05.091Z,10.10
2024-01-05T16:11:32.595Z,11.10
2024-01-05T16:14:00.593Z,12.13
2024-01-05T16:16:28.792Z,14.23
2024-01-05T16:18:56.185Z,10.07
2024-01-05T16:21:27.356Z,11.83
2024-01-05T16:23:55.487Z,7.00
2024-01-05T16:26:23.297Z,9.90
2024-01-05T16:28:50.838Z,7.90
2024-01-05T16:31:18.859Z,10.37
2024-01-05T16:33:46.284Z,16.57
2024-01-05T16:36:14.415Z,12.30
2024-01-05T16:38:41.671Z,12.73
2024-01-05T16:41:10.357Z,13.87
2024-01-05T16:43:38.152Z,15.83
2024-01-05T16:46:05.475Z,12.57
2024-01-05T16:48:32.888Z,15.63
2024-01-05T16:51:00.316Z,9.80
2024-01-05T16:53:28.909Z,6.67
2024-01-05T16:55:56.872Z,5.73
2024-01-05T16:58:24.054Z,8.07
2024-01-05T17:00:52.067Z,6.87
2024-01-05T17:03:19.972Z,8.17
2024-01-05T17:05:48.206Z,9.00
2024-01-05T17:08:15.713Z,7.97
2024-01-05T17:10:42.998Z,6.53
2024-01-05T17:13:10.216Z,8.83
2024-01-05T17:15:37.630Z,9.83
2024-01-05T17:18:05.566Z,7.13
2024-01-05T17:20:33.066Z,10.40
2024-01-05T17:23:00.679Z,14.80
2024-01-05T17:25:27.949Z,13.53
2024-01-05T17:27:55.213Z,12.93
2024-01-05T17:30:23.175Z,12.37
2024-01-05T17:32:50.943Z,12.27
2024-01-05T17:35:20.536Z,11.50
2024-01-05T17:37:47.786Z,9.80
2024-01-05T17:40:15.139Z,6.63
2024-01-05T17:42:42.791Z,9.90
2024-01-05T17:45:10.669Z,8.17
2024-01-05T17:47:38.123Z,10.30
2024-01-05T17:50:06.012Z,14.80
2024-01-05T17:52:33.257Z,17.60
2024-01-05T17:55:00.498Z,14.73
2024-01-05T17:57:27.858Z,10.30
2024-01-05T17:59:55.049Z,10.13
2024-01-05T18:02:22.307Z,9.77
2024-01-05T18:04:49.590Z,7.63
2024-01-05T18:07:18.054Z,7.40
2024-01-05T18:09:45.786Z,8.03
2024-01-05T18:12:13.222Z,22.20
2024-01-05T18:14:40.930Z,6.70
2024-01-05T18:17:08.660Z,7.40
2024-01-05T18:19:35.973Z,5.63
2024-01-05T18:22:03.389Z,6.97
2024-01-05T18:24:31.111Z,7.67
2024-01-05T18:26:59.430Z,9.40
2024-01-05T18:29:29.441Z,7.60
2024-01-05T18:31:58.678Z,11.13
2024-01-05T18:34:27.256Z,15.00
2024-01-05T18:36:55.197Z,13.50
2024-01-05T18:39:23.196Z,9.40
2024-01-05T18:41:50.809Z,7.97
2024-01-05T18:44:18.141Z,10.53
2024-01-05T18:46:45.668Z,8.97
2024-01-05T18:49:13.813Z,10.47
2024-01-05T18:51:41.352Z,11.10
2024-01-05T18:54:08.886Z,9.13
2024-01-05T18:56:36.207Z,9.50
2024-01-05T18:59:04.746Z,9.17
2024-01-05T19:01:33.117Z,10.40
2024-01-05T19:04:00.844Z,13.87
2024-01-05T19:06:28.546Z,10.87
2024-01-05T19:08:55.835Z,12.97
2024-01-05T19:11:23.185Z,21.27
2024-01-05T19:13:50.429Z,18.27
2024-01-05T19:16:18.107Z,12.10
2024-01-05T19:18:45.855Z,11.00
2024-01-05T19:21:14.530Z,9.50
2024-01-05T19:23:41.913Z,11.37
2024-01-05T19:26:09.353Z,16.20
2024-01-05T19:28:39.511Z,58.17
2024-01-05T19:31:07.585Z,16.90
2024-01-05T19:33:35.915Z,14.57
2024-01-05T19:36:06.568Z,10.67
2024-01-05T19:38:33.820Z,8.90
2024-01-05T19:41:02.352Z,10.73
2024-01-05T19:43:29.587Z,18.37
2024-01-05T19:45:57.182Z,24.37
2024-01-05T19:48:25.313Z,43.00
2024-01-05T19:50:52.601Z,35.50
2024-01-05T19:53:19.801Z,33.03
2024-01-05T19:55:47.140Z,24.93
2024-01-05T19:58:14.571Z,19.93
2024-01-05T20:00:41.861Z,15.00
2024-01-05T20:03:09.397Z,20.53
2024-01-05T20:05:36.808Z,13.70
2024-01-05T20:08:04.261Z,14.63
2024-01-05T20:10:35.813Z,15.47
2024-01-05T20:13:04.563Z,11.93
2024-01-05T20:15:36.961Z,13.13
2024-01-05T20:18:04.745Z,10.00
2024-01-05T20:20:33.002Z,17.13
2024-01-05T20:23:01.131Z,16.77
2024-01-05T20:25:28.512Z,12.97
2024-01-05T20:27:56.947Z,9.20
2024-01-05T20:30:24.808Z,8.87
2024-01-05T20:32:53.175Z,9.33
2024-01-05T20:35:20.826Z,8.67
2024-01-05T20:37:48.986Z,5.83
2024-01-05T20:40:16.446Z,6.17
2024-01-05T20:42:43.816Z,5.93
2024-01-05T20:45:12.791Z,4.97
2024-01-05T20:47:40.589Z,7.53
2024-01-05T20:50:08.698Z,5.60
2024-01-05T20:52:36.072Z,7.97
2024-01-05T20:55:03.909Z,15.30
2024-01-05T20:57:31.406Z,12.03
2024-01-05T20:59:58.988Z,9.97
2024-01-05T21:02:26.325Z,8.47
2024-01-05T21:04:54.567Z,13.27
2024-01-05T21:07:23.058Z,15.10
2024-01-05T21:09:50.426Z,13.13
2024-01-05T21:12:17.790Z,9.60
2024-01-05T21:14:45.451Z,7.13
2024-01-05T21:17:12.786Z,6.47
2024-01-05T21:19:41.854Z,5.73
2024-01-05T21:22:09.373Z,8.80
2024-01-05T21:24:51.619Z,6.70
2024-01-05T21:27:19.928Z,7.70
2024-01-05T21:29:47.744Z,6.07
2024-01-05T21:32:15.820Z,8.77
2024-01-05T21:34:43.887Z,7.63
2024-01-05T21:37:13.003Z,10.37
2024-01-05T21:39:40.627Z,9.43
2024-01-05T21:42:08.580Z,14.70
2024-01-05T21:44:36.221Z,31.77
2024-01-05T21:47:03.706Z,20.47
2024-01-05T21:49:31.817Z,16.27
2024-01-05T21:52:00.057Z,19.37
2024-01-05T21:54:37.083Z,17.80
2024-01-05T21:57:04.546Z,11.33
2024-01-05T21:59:34.604Z,11.70
2024-01-05T22:02:02.150Z,8.43
2024-01-05T22:04:32.039Z,8.03
2024-01-05T22:07:02.060Z,7.27
2024-01-05T22:09:30.641Z,6.43
2024-01-05T22:11:58.048Z,9.10
2024-01-05T22:14:27.419Z,8.87
2024-01-05T22:16:56.111Z,10.83
2024-01-05T22:19:23.665Z,10.30
2024-01-05T22:21:51.064Z,11.43
2024-01-05T22:24:21.458Z,13.07
2024-01-05T22:26:49.214Z,7.80
2024-01-05T22:29:16.523Z,7.13
2024-01-05T22:31:47.404Z,4.43
2024-01-05T22:34:15.934Z,4.57
2024-01-05T22:36:43.483Z,3.93
2024-01-05T22:39:13.216Z,4.27
2024-01-05T22:41:43.957Z,4.83
2024-01-05T22:44:12.320Z,7.97
2024-01-05T22:46:40.357Z,7.43
2024-01-05T22:49:08.632Z,6.03
2024-01-05T22:51:36.550Z,7.27
2024-01-05T22:54:06.064Z,7.07
2024-01-05T22:56:33.544Z,9.80
2024-01-05T22:59:00.895Z,5.13
2024-01-05T23:01:28.328Z,10.50
2024-01-05T23:04:00.124Z,6.17
2024-01-05T23:06:27.886Z,7.50
2024-01-05T23:08:55.248Z,5.27
2024-01-05T23:11:22.618Z,7.23
2024-01-05T23:13:50.281Z,6.60
2024-01-05T23:16:18.963Z,4.83
2024-01-05T23:18:47.796Z,5.77
2024-01-05T23:21:16.484Z,6.33
2024-01-05T23:23:45.695Z,6.40
2024-01-05T23:26:17.391Z,7.07
2024-01-05T23:28:44.578Z,6.17
2024-01-05T23:31:12.034Z,9.80
2024-01-05T23:33:39.448Z,5.77
2024-01-05T23:36:07.211Z,11.03
2024-01-05T23:38:34.626Z,8.13
2024-01-05T23:41:01.883Z,10.33
2024-01-05T23:43:29.355Z,10.63
2024-01-05T23:45:56.632Z,12.53
2024-01-05T23:48:24.443Z,10.40
2024-01-05T23:50:52.175Z,10.60
2024-01-05T23:53:19.856Z,11.50
2024-01-05T23:55:47.140Z,12.43
2024-01-05T23:58:14.495Z,11.83
